Time;durP1;ratioP1;P1;durP2;ratioP2;P2;SDS_P1;SDS_P2;PMS_P1;PMS_P2;Temp;Humidity;BMP_temperature;BMP_pressure;BME280_temperature;BME280_humidity;BME280_pressure;Samples;Min_cycle;Max_cycle;Signal;HPM_P1;HPM_P2
2023/04/06 00:01:19;;;;;;;;;;;;;;;6.18;33.04;100640.69;5366685;32;34726;-66
2023/04/06 00:04:21;;;;;;;;;;;;;;;6.28;32.79;100637.06;5356410;32;34034;-66
2023/04/06 00:07:27;;;;;;;;;;;;;;;6.20;32.94;100618.91;5354277;32;33400;-66
2023/04/06 00:10:29;;;;;;;;;;;;;;;6.13;33.00;100632.97;5374182;32;34013;-64
2023/04/06 00:13:31;;;;;;;;;;;;;;;6.43;32.96;100626.31;5360358;32;33715;-64
2023/04/06 00:16:33;;;;;;;;;;;;;;;6.75;32.14;100617.03;5375837;32;33665;-64
2023/04/06 00:19:35;;;;;;;;;;;;;;;6.68;32.40;100624.13;5368297;32;33885;-64
2023/04/06 00:22:37;;;;;;;;;;;;;;;5.81;33.73;100609.13;5363245;32;33250;-66
2023/04/06 00:25:39;;;;;;;;;;;;;;;5.64;34.42;100622.41;5369231;32;46749;-64
2023/04/06 00:28:41;;;;;;;;;;;;;;;6.35;32.75;100615.16;5369141;32;34086;-63
2023/04/06 00:31:43;;;;;;;;;;;;;;;6.03;33.63;100614.88;5375976;32;32968;-65
2023/04/06 00:34:45;;;;;;;;;;;;;;;6.00;33.33;100614.94;5362909;32;33512;-63
2023/04/06 00:37:50;;;;;;;;;;;;;;;5.92;33.76;100605.47;5376612;32;34024;-64
2023/04/06 00:40:52;;;;;;;;;;;;;;;6.42;32.85;100603.72;5364044;32;33602;-66
2023/04/06 00:43:54;;;;;;;;;;;;;;;6.03;33.29;100588.78;5363636;32;34693;-65
2023/04/06 00:46:56;;;;;;;;;;;;;;;6.07;32.74;100600.91;5373375;32;34116;-66
2023/04/06 00:49:58;;;;;;;;;;;;;;;5.87;34.18;100607.28;5364595;32;33696;-66
2023/04/06 00:53:00;;;;;;;;;;;;;;;4.94;36.56;100603.41;5373043;32;34307;-65
2023/04/06 00:56:02;;;;;;;;;;;;;;;4.74;37.30;100600.19;5363307;32;35433;-66
2023/04/06 00:59:04;;;;;;;;;;;;;;;4.49;38.22;100618.66;5376021;32;33689;-64
2023/04/06 01:02:06;;;;;;;;;;;;;;;5.40;36.38;100608.84;5361607;32;33080;-65
2023/04/06 01:05:08;;;;;;;;;;;;;;;5.03;36.76;100610.25;5339380;32;36319;-65
2023/04/06 01:08:10;;;;;;;;;;;;;;;4.76;37.73;100611.44;5377305;32;33730;-64
2023/04/06 01:11:12;;;;;;;;;;;;;;;4.54;38.29;100616.87;5363043;32;33018;-66
2023/04/06 01:14:14;;;;;;;;;;;;;;;3.94;39.68;100616.59;5375141;32;32909;-65
2023/04/06 01:17:16;;;;;;;;;;;;;;;3.48;41.43;100614.34;5363095;32;34107;-65
2023/04/06 01:20:18;;;;;;;;;;;;;;;4.18;41.08;100619.84;5379554;32;33635;-64
2023/04/06 01:23:20;;;;;;;;;;;;;;;3.98;42.08;100615.69;5362826;32;33784;-64
2023/04/06 01:26:22;;;;;;;;;;;;;;;4.05;42.43;100619.94;5365139;32;34808;-65
2023/04/06 01:29:24;;;;;;;;;;;;;;;3.76;43.19;100616.75;5376825;32;35824;-65
2023/04/06 01:32:26;;;;;;;;;;;;;;;3.97;43.07;100613.97;5358957;32;34280;-64
2023/04/06 01:35:28;;;;;;;;;;;;;;;4.08;42.49;100608.69;5374322;32;33840;-64
2023/04/06 01:38:30;;;;;;;;;;;;;;;3.71;43.51;100615.91;5366642;32;33268;-63
2023/04/06 01:41:31;;;;;;;;;;;;;;;4.14;42.75;100613.81;5372418;32;34226;-65
2023/04/06 01:44:34;;;;;;;;;;;;;;;3.31;44.02;100602.34;5364280;32;34027;-64
2023/04/06 01:47:38;;;;;;;;;;;;;;;3.67;43.17;100615.09;5362789;32;44549;-64
2023/04/06 01:50:41;;;;;;;;;;;;;;;4.10;42.04;100606.91;5379886;32;33396;-65
2023/04/06 01:53:42;;;;;;;;;;;;;;;3.87;42.25;100606.28;5358544;32;34080;-64
2023/04/06 01:56:44;;;;;;;;;;;;;;;4.58;40.87;100600.38;5376675;32;33819;-65
2023/04/06 01:59:46;;;;;;;;;;;;;;;4.61;40.69;100599.47;5367300;32;33721;-63
2023/04/06 02:02:48;;;;;;;;;;;;;;;4.32;40.92;100592.84;5369152;32;34359;-64
2023/04/06 02:05:50;;;;;;;;;;;;;;;3.89;41.99;100596.72;5341097;32;33856;-66
2023/04/06 02:08:52;;;;;;;;;;;;;;;3.59;41.74;100596.06;5363578;32;33581;-65
2023/04/06 02:11:55;;;;;;;;;;;;;;;3.46;41.36;100577.09;5372086;32;34660;-65
2023/04/06 02:14:57;;;;;;;;;;;;;;;4.48;39.60;100582.25;5360491;32;35765;-64
2023/04/06 02:18:00;;;;;;;;;;;;;;;3.78;39.82;100583.78;5379451;32;34028;-64
2023/04/06 02:21:02;;;;;;;;;;;;;;;3.65;39.70;100585.63;5364725;32;33574;-64
2023/04/06 02:24:04;;;;;;;;;;;;;;;3.65;39.94;100583.03;5372142;32;33464;-66
2023/04/06 02:27:06;;;;;;;;;;;;;;;3.47;40.81;100584.00;5367874;32;34310;-66
2023/04/06 02:30:08;;;;;;;;;;;;;;;3.23;41.85;100585.06;5368348;32;35598;-65
2023/04/06 02:33:10;;;;;;;;;;;;;;;3.17;41.87;100573.84;5375517;32;33432;-65
2023/04/06 02:36:14;;;;;;;;;;;;;;;3.24;41.87;100570.34;5365339;32;35431;-65
2023/04/06 02:39:16;;;;;;;;;;;;;;;3.89;40.20;100575.91;5376398;32;33495;-65
2023/04/06 02:42:18;;;;;;;;;;;;;;;3.45;41.18;100571.91;5360896;32;33893;-66
2023/04/06 02:45:20;;;;;;;;;;;;;;;3.47;42.14;100572.75;5372741;32;33550;-64
2023/04/06 02:48:22;;;;;;;;;;;;;;;3.79;41.63;100573.38;5371178;32;34409;-64
2023/04/06 02:51:25;;;;;;;;;;;;;;;3.59;42.78;100577.88;5348857;32;34802;-64
2023/04/06 02:54:27;;;;;;;;;;;;;;;3.09;43.94;100578.19;5375659;32;33846;-65
2023/04/06 02:57:29;;;;;;;;;;;;;;;2.92;43.88;100562.72;5364822;32;33784;-64
2023/04/06 03:00:31;;;;;;;;;;;;;;;3.45;42.38;100567.59;5380723;32;33837;-64
2023/04/06 03:03:33;;;;;;;;;;;;;;;3.36;42.88;100572.84;5354706;32;33976;-66
2023/04/06 03:06:35;;;;;;;;;;;;;;;2.96;43.85;100580.00;5356355;32;33801;-64
2023/04/06 03:09:37;;;;;;;;;;;;;;;2.81;44.02;100554.97;5373099;32;33764;-63
2023/04/06 03:12:41;;;;;;;;;;;;;;;2.68;44.55;100574.06;5361855;32;45163;-65
2023/04/06 03:15:43;;;;;;;;;;;;;;;3.17;43.72;100573.84;5378138;32;35994;-65
2023/04/06 03:18:46;;;;;;;;;;;;;;;2.79;44.41;100576.63;5364633;32;34107;-64
2023/04/06 03:21:48;;;;;;;;;;;;;;;2.86;43.96;100578.34;5373259;32;33773;-66
2023/04/06 03:24:50;;;;;;;;;;;;;;;2.87;43.98;100575.72;5363530;32;33679;-63
2023/04/06 03:27:52;;;;;;;;;;;;;;;2.88;44.00;100579.19;5373246;32;33582;-66
2023/04/06 03:30:54;;;;;;;;;;;;;;;2.79;44.29;100572.31;5374915;32;34013;-65
2023/04/06 03:33:59;;;;;;;;;;;;;;;3.28;43.57;100574.62;5361768;32;35255;-65
2023/04/06 03:37:01;;;;;;;;;;;;;;;2.76;44.39;100577.50;5375063;32;34061;-64
2023/04/06 03:40:10;;;;;;;;;;;;;;;2.58;45.49;100580.19;5369111;32;44665;-65
2023/04/06 03:43:13;;;;;;;;;;;;;;;2.69;45.24;100586.19;5372492;32;33474;-65
2023/04/06 03:46:15;;;;;;;;;;;;;;;2.81;45.00;100580.94;5365041;32;34061;-65
2023/04/06 03:49:17;;;;;;;;;;;;;;;3.36;43.66;100574.59;5370400;32;33606;-65
2023/04/06 03:52:19;;;;;;;;;;;;;;;3.07;44.21;100575.63;5370017;32;35314;-64
2023/04/06 03:55:21;;;;;;;;;;;;;;;4.06;42.08;100563.63;5361268;32;34570;-66
2023/04/06 03:58:25;;;;;;;;;;;;;;;4.36;41.40;100557.22;5383048;32;33761;-64
2023/04/06 04:01:27;;;;;;;;;;;;;;;4.12;41.69;100563.53;5361315;32;36288;-65
2023/04/06 04:04:29;;;;;;;;;;;;;;;3.97;42.10;100561.94;5358444;32;34096;-65
2023/04/06 04:07:31;;;;;;;;;;;;;;;4.58;40.44;100565.66;5356741;32;33753;-64
2023/04/06 04:10:33;;;;;;;;;;;;;;;4.53;40.69;100557.03;5368951;32;35474;-63
2023/04/06 04:13:35;;;;;;;;;;;;;;;4.24;41.38;100559.94;5371215;32;33682;-64
2023/04/06 04:16:39;;;;;;;;;;;;;;;3.62;42.78;100557.06;5362716;32;33622;-63
2023/04/06 04:19:41;;;;;;;;;;;;;;;3.51;42.89;100551.94;5381417;32;46779;-65
2023/04/06 04:22:43;;;;;;;;;;;;;;;3.35;43.53;100565.03;5361381;32;33360;-64
2023/04/06 04:25:45;;;;;;;;;;;;;;;2.95;44.75;100565.28;5375114;32;33851;-64
2023/04/06 04:28:47;;;;;;;;;;;;;;;2.79;45.08;100556.72;5368433;32;34467;-65
2023/04/06 04:31:49;;;;;;;;;;;;;;;2.70;45.46;100556.75;5365202;32;33764;-65
2023/04/06 04:34:52;;;;;;;;;;;;;;;3.47;43.87;100526.84;5379974;32;33304;-65
2023/04/06 04:37:54;;;;;;;;;;;;;;;3.70;43.38;100544.00;5365241;32;33572;-66
2023/04/06 04:40:56;;;;;;;;;;;;;;;4.18;42.54;100542.66;5376866;32;34601;-64
2023/04/06 04:43:58;;;;;;;;;;;;;;;4.76;40.83;100534.16;5359306;32;33802;-65
2023/04/06 04:47:00;;;;;;;;;;;;;;;4.04;42.28;100534.16;5375129;32;33751;-65
2023/04/06 04:50:02;;;;;;;;;;;;;;;3.97;42.00;100525.53;5368046;32;35694;-67
2023/04/06 04:53:07;;;;;;;;;;;;;;;3.26;43.79;100540.88;5362391;32;33690;-65
2023/04/06 04:56:09;;;;;;;;;;;;;;;3.85;40.47;100532.59;5375073;32;44667;-64
2023/04/06 04:59:11;;;;;;;;;;;;;;;4.82;38.60;100541.91;5367714;32;34184;-65
2023/04/06 05:02:13;;;;;;;;;;;;;;;4.29;39.35;100538.22;5371020;32;33723;-64
2023/04/06 05:05:15;;;;;;;;;;;;;;;5.14;37.14;100517.16;5342964;32;33800;-64
2023/04/06 05:08:17;;;;;;;;;;;;;;;4.57;36.87;100530.06;5375221;32;33832;-65
2023/04/06 05:11:18;;;;;;;;;;;;;;;4.73;36.66;100526.41;5361806;32;33312;-65
2023/04/06 05:14:20;;;;;;;;;;;;;;;5.28;35.76;100522.16;5361249;32;33172;-64
2023/04/06 05:17:22;;;;;;;;;;;;;;;5.10;36.38;100521.56;5372213;32;33829;-64
2023/04/06 05:20:25;;;;;;;;;;;;;;;5.38;37.87;100513.31;5366672;32;33565;-65
2023/04/06 05:23:27;;;;;;;;;;;;;;;6.28;36.58;100501.31;5372426;32;33710;-65
2023/04/06 05:26:29;;;;;;;;;;;;;;;5.57;36.37;100500.84;5363584;32;34496;-65
2023/04/06 05:29:31;;;;;;;;;;;;;;;4.74;37.42;100506.44;5375270;32;33791;-64
2023/04/06 05:32:33;;;;;;;;;;;;;;;5.21;36.53;100508.34;5360413;32;33938;-64
2023/04/06 05:35:35;;;;;;;;;;;;;;;5.10;37.25;100505.94;5355418;32;34133;-63
2023/04/06 05:38:37;;;;;;;;;;;;;;;6.41;34.73;100500.19;5371023;32;34422;-65
2023/04/06 05:41:39;;;;;;;;;;;;;;;5.81;35.47;100495.22;5363576;32;47470;-64
2023/04/06 05:44:41;;;;;;;;;;;;;;;5.77;35.90;100488.31;5376149;32;33946;-65
2023/04/06 05:47:43;;;;;;;;;;;;;;;4.70;37.10;100490.03;5362206;32;34483;-64
2023/04/06 05:50:50;;;;;;;;;;;;;;;6.13;35.06;100485.97;5358999;32;34864;-65
2023/04/06 05:53:52;;;;;;;;;;;;;;;6.20;34.29;100475.38;5367886;32;34489;-65
2023/04/06 05:56:54;;;;;;;;;;;;;;;6.68;33.84;100479.59;5364078;32;33463;-64
2023/04/06 05:59:58;;;;;;;;;;;;;;;6.91;33.46;100474.75;5378757;32;34462;-65
2023/04/06 06:03:00;;;;;;;;;;;;;;;6.06;34.35;100484.37;5362738;32;35405;-63
2023/04/06 06:06:02;;;;;;;;;;;;;;;6.79;33.77;100482.84;5358107;32;33151;-64
2023/04/06 06:09:06;;;;;;;;;;;;;;;5.52;36.48;100477.44;5364891;32;34264;-63
2023/04/06 06:12:08;;;;;;;;;;;;;;;6.92;33.82;100470.38;5342868;32;989473;-67
2023/04/06 06:15:12;;;;;;;;;;;;;;;6.18;34.38;100458.00;5372932;32;33089;-64
2023/04/06 06:18:14;;;;;;;;;;;;;;;6.89;33.53;100468.69;5364538;32;33488;-64
2023/04/06 06:21:16;;;;;;;;;;;;;;;6.08;35.06;100464.31;5378906;32;34273;-63
2023/04/06 06:24:19;;;;;;;;;;;;;;;6.46;34.38;100474.84;5368290;32;33036;-68
2023/04/06 06:27:21;;;;;;;;;;;;;;;7.24;32.89;100459.16;5383022;32;33149;-71
2023/04/06 06:30:23;;;;;;;;;;;;;;;6.18;34.24;100463.22;5368726;32;33407;-66
2023/04/06 06:33:26;;;;;;;;;;;;;;;7.04;32.99;100442.19;5375054;32;33245;-64
2023/04/06 06:36:28;;;;;;;;;;;;;;;6.06;33.72;100455.66;5374148;32;33092;-70
2023/04/06 06:39:30;;;;;;;;;;;;;;;6.47;34.11;100460.03;5369175;32;34338;-64
2023/04/06 06:42:33;;;;;;;;;;;;;;;8.13;31.78;100444.63;5381449;32;33091;-63
2023/04/06 06:45:35;;;;;;;;;;;;;;;8.24;31.80;100444.28;5372218;32;32929;-67
2023/04/06 06:48:37;;;;;;;;;;;;;;;7.54;31.63;100441.84;5378095;32;32942;-70
2023/04/06 06:51:39;;;;;;;;;;;;;;;7.80;30.87;100435.94;5367506;32;48500;-69
2023/04/06 06:54:41;;;;;;;;;;;;;;;7.26;31.72;100436.44;5369021;32;34103;-66
2023/04/06 06:57:43;;;;;;;;;;;;;;;9.33;28.70;100426.09;5373898;32;32832;-67
2023/04/06 07:00:45;;;;;;;;;;;;;;;7.96;29.39;100429.38;5368144;32;33087;-67
2023/04/06 07:03:47;;;;;;;;;;;;;;;7.83;29.70;100428.84;5368290;32;33028;-66
2023/04/06 07:06:50;;;;;;;;;;;;;;;8.29;29.04;100430.16;5356165;32;34232;-65
2023/04/06 07:09:52;;;;;;;;;;;;;;;7.30;30.25;100436.34;5380767;32;34816;-68
2023/04/06 07:12:54;;;;;;;;;;;;;;;8.60;28.18;100418.81;5369084;32;32978;-67
2023/04/06 07:15:56;;;;;;;;;;;;;;;8.00;28.77;100433.63;5378016;32;34429;-71
2023/04/06 07:18:58;;;;;;;;;;;;;;;8.72;28.24;100428.94;5370754;32;34693;-65
2023/04/06 07:22:00;;;;;;;;;;;;;;;7.83;29.28;100421.00;5366454;32;32921;-68
2023/04/06 07:25:03;;;;;;;;;;;;;;;8.68;28.41;100433.41;5382774;32;33321;-69
2023/04/06 07:28:05;;;;;;;;;;;;;;;8.64;28.23;100439.66;5368402;32;33156;-68
2023/04/06 07:31:06;;;;;;;;;;;;;;;9.02;27.55;100428.88;5379911;32;33304;-64
2023/04/06 07:34:09;;;;;;;;;;;;;;;6.97;30.70;100427.56;5366343;32;44721;-68
2023/04/06 07:37:13;;;;;;;;;;;;;;;6.97;30.90;100432.78;5373735;32;32927;-69
2023/04/06 07:40:15;;;;;;;;;;;;;;;7.54;29.35;100426.16;5377789;32;34304;-65
2023/04/06 07:43:17;;;;;;;;;;;;;;;7.59;29.88;100425.12;5365067;32;33127;-69
2023/04/06 07:46:20;;;;;;;;;;;;;;;7.24;30.15;100433.03;5382148;32;33079;-69
2023/04/06 07:49:22;;;;;;;;;;;;;;;8.61;28.74;100424.00;5364908;32;33744;-73
2023/04/06 07:52:24;;;;;;;;;;;;;;;8.83;27.96;100426.00;5376870;32;33132;-65
2023/04/06 07:55:26;;;;;;;;;;;;;;;8.75;28.49;100427.97;5370680;32;34280;-70
2023/04/06 07:58:28;;;;;;;;;;;;;;;8.32;28.56;100421.38;5370947;32;34291;-71
2023/04/06 08:01:30;;;;;;;;;;;;;;;8.25;28.48;100425.94;5379625;32;32909;-71
2023/04/06 08:04:32;;;;;;;;;;;;;;;6.92;30.77;100431.19;5356534;32;33073;-74
2023/04/06 08:07:36;;;;;;;;;;;;;;;8.27;29.35;100423.28;5373845;32;33053;-74
2023/04/06 08:10:38;;;;;;;;;;;;;;;7.23;31.06;100426.06;5370287;32;33132;-66
2023/04/06 08:13:40;;;;;;;;;;;;;;;8.26;29.33;100419.81;5379886;32;44977;-63
2023/04/06 08:16:42;;;;;;;;;;;;;;;7.67;30.47;100417.09;5362841;32;32878;-69
2023/04/06 08:19:44;;;;;;;;;;;;;;;6.76;31.59;100425.44;5371889;32;32202;-72
2023/04/06 08:22:50;;;;;;;;;;;;;;;8.37;29.43;100419.50;5374733;32;33772;-77
2023/04/06 08:25:57;;;;;;;;;;;;;;;8.02;29.86;100417.88;5364892;32;34417;-75
2023/04/06 08:29:00;;;;;;;;;;;;;;;7.82;30.18;100411.44;5375787;32;33143;-77
2023/04/06 08:32:04;;;;;;;;;;;;;;;8.09;29.51;100409.81;5358080;32;33859;-68
2023/04/06 08:35:07;;;;;;;;;;;;;;;8.28;29.62;100388.31;5379289;32;34104;-74
2023/04/06 08:38:12;;;;;;;;;;;;;;;8.12;29.86;100401.88;5366946;32;44920;-71
2023/04/06 08:41:14;;;;;;;;;;;;;;;7.85;30.11;100407.88;5363390;32;32949;-74
2023/04/06 08:44:16;;;;;;;;;;;;;;;7.12;31.39;100402.81;5377205;32;32818;-70
2023/04/06 08:47:19;;;;;;;;;;;;;;;7.42;30.77;100395.94;5369683;32;34752;-70
2023/04/06 08:50:25;;;;;;;;;;;;;;;8.82;28.32;100391.06;5382100;32;34262;-74
2023/04/06 08:53:28;;;;;;;;;;;;;;;8.57;28.65;100390.97;5366259;32;31507;-72
2023/04/06 08:56:30;;;;;;;;;;;;;;;9.15;28.15;100396.13;5376656;32;33750;-72
2023/04/06 08:59:36;;;;;;;;;;;;;;;8.35;28.69;100374.16;5374132;32;34056;-77
2023/04/06 09:02:40;;;;;;;;;;;;;;;10.00;27.00;100374.75;5364347;32;43056;-77
2023/04/06 09:05:43;;;;;;;;;;;;;;;9.86;26.93;100378.78;5357936;32;34467;-71
2023/04/06 09:08:45;;;;;;;;;;;;;;;10.14;26.50;100368.97;5365550;32;33543;-72
2023/04/06 09:11:51;;;;;;;;;;;;;;;10.94;24.97;100369.34;5361838;32;35461;-73
2023/04/06 09:14:54;;;;;;;;;;;;;;;10.66;26.33;100369.63;5368191;32;31621;-72
2023/04/06 09:17:56;;;;;;;;;;;;;;;10.81;25.53;100373.41;5367161;32;32963;-71
2023/04/06 09:21:03;;;;;;;;;;;;;;;9.02;27.15;100377.31;5372907;32;32863;-71
2023/04/06 09:24:06;;;;;;;;;;;;;;;9.50;26.83;100374.78;5361542;32;32454;-79
2023/04/06 09:27:09;;;;;;;;;;;;;;;9.65;27.48;100373.38;5378317;32;44334;-75
2023/04/06 09:30:13;;;;;;;;;;;;;;;9.68;27.05;100361.94;5369194;32;33923;-74
2023/04/06 09:33:24;;;;;;;;;;;;;;;10.01;25.95;100352.81;5377168;32;33106;-74
2023/04/06 09:36:30;;;;;;;;;;;;;;;8.67;27.48;100358.31;5361498;32;33400;-78
2023/04/06 09:39:33;;;;;;;;;;;;;;;8.68;28.03;100357.41;5367061;32;34057;-72
2023/04/06 09:42:35;;;;;;;;;;;;;;;8.60;27.92;100338.47;5379446;32;32992;-72
2023/04/06 09:45:40;;;;;;;;;;;;;;;8.61;28.06;100355.03;5369760;32;46012;-72
2023/04/06 09:48:42;;;;;;;;;;;;;;;9.49;26.76;100365.22;5378227;32;34468;-73
2023/04/06 09:51:46;;;;;;;;;;;;;;;10.94;25.47;100352.72;5368998;32;35257;-72
2023/04/06 09:54:49;;;;;;;;;;;;;;;9.83;26.26;100350.00;5376012;32;33046;-76
2023/04/06 09:58:07;;;;;;;;;;;;;;;9.19;26.37;100354.00;5368400;32;34603;-75
2023/04/06 10:01:11;;;;;;;;;;;;;;;9.68;26.02;100346.19;5362648;32;44999;-76
2023/04/06 10:04:14;;;;;;;;;;;;;;;10.03;25.72;100350.13;5359849;32;32948;-71
2023/04/06 10:07:16;;;;;;;;;;;;;;;10.68;24.80;100340.62;5357397;32;33020;-67
2023/04/06 10:10:19;;;;;;;;;;;;;;;10.01;25.54;100339.69;5375719;32;34190;-72
2023/04/06 10:13:21;;;;;;;;;;;;;;;10.83;24.64;100335.63;5368063;32;34645;-74
2023/04/06 10:16:24;;;;;;;;;;;;;;;11.76;23.69;100328.13;5365196;32;34421;-68
2023/04/06 10:19:28;;;;;;;;;;;;;;;11.70;24.03;100324.91;5375767;32;34481;-70
2023/04/06 10:22:39;;;;;;;;;;;;;;;11.24;24.62;100325.16;5367847;32;32719;-79
2023/04/06 10:25:54;;;;;;;;;;;;;;;10.87;24.68;100324.97;5381001;32;44311;-81
2023/04/06 10:29:01;;;;;;;;;;;;;;;10.96;24.11;100307.06;5366682;32;35295;-89
2023/04/06 10:32:03;;;;;;;;;;;;;;;11.01;24.62;100306.84;5375101;32;32786;-90
2023/04/06 10:35:09;;;;;;;;;;;;;;;11.42;23.92;100317.38;5378571;32;33581;-72
2023/04/06 10:38:14;;;;;;;;;;;;;;;11.13;24.05;100303.69;5361344;32;44459;-78
2023/04/06 10:41:17;;;;;;;;;;;;;;;11.26;24.12;100307.50;5384613;32;33146;-73
2023/04/06 10:44:20;;;;;;;;;;;;;;;11.69;23.59;100281.09;5367316;32;31872;-74
2023/04/06 10:47:22;;;;;;;;;;;;;;;11.77;23.40;100281.59;5371780;32;35350;-77
2023/04/06 10:50:27;;;;;;;;;;;;;;;11.19;23.92;100303.44;5369501;32;34243;-76
2023/04/06 10:53:33;;;;;;;;;;;;;;;11.45;23.79;100293.56;5342596;32;33943;-72
2023/04/06 10:56:40;;;;;;;;;;;;;;;12.01;22.99;100291.03;5373138;32;35285;-72
2023/04/06 10:59:45;;;;;;;;;;;;;;;10.57;24.70;100286.75;5363974;32;45030;-73
2023/04/06 11:02:58;;;;;;;;;;;;;;;10.18;24.69;100294.41;5361487;32;33083;-70
2023/04/06 11:06:01;;;;;;;;;;;;;;;10.38;25.11;100282.31;5344034;32;35764;-74
2023/04/06 11:09:05;;;;;;;;;;;;;;;9.74;24.79;100285.59;5364544;32;32812;-71
2023/04/06 11:12:08;;;;;;;;;;;;;;;9.87;24.84;100286.00;5368956;32;32106;-70
2023/04/06 11:15:10;;;;;;;;;;;;;;;10.66;23.71;100282.03;5351727;32;44435;-70
2023/04/06 11:18:13;;;;;;;;;;;;;;;9.46;24.85;100289.22;5362999;32;32833;-69
2023/04/06 11:21:15;;;;;;;;;;;;;;;10.50;23.74;100268.69;5354866;32;31093;-81
2023/04/06 11:24:22;;;;;;;;;;;;;;;10.68;23.92;100278.41;5368964;32;33251;-79
2023/04/06 11:27:31;;;;;;;;;;;;;;;11.09;23.11;100260.91;5367280;32;34667;-71
2023/04/06 11:30:33;;;;;;;;;;;;;;;12.29;22.08;100266.00;5361110;32;32553;-71
2023/04/06 11:33:41;;;;;;;;;;;;;;;11.59;22.65;100268.34;5373998;32;34356;-73
2023/04/06 11:36:57;;;;;;;;;;;;;;;10.98;23.37;100271.03;5364576;32;32376;-72
2023/04/06 11:40:03;;;;;;;;;;;;;;;10.25;24.22;100264.41;5379757;32;32993;-81
2023/04/06 11:43:06;;;;;;;;;;;;;;;10.41;24.40;100264.63;5354494;32;34505;-75
2023/04/06 11:46:33;;;;;;;;;;;;;;;12.97;21.76;100256.47;5358040;32;44251;-77
2023/04/06 11:49:37;;;;;;;;;;;;;;;12.16;22.50;100255.19;5352976;32;32804;-77
2023/04/06 11:52:40;;;;;;;;;;;;;;;11.74;22.19;100250.16;5361140;32;43577;-68
2023/04/06 11:55:44;;;;;;;;;;;;;;;12.00;22.27;100241.91;5377402;32;33604;-74
2023/04/06 11:58:50;;;;;;;;;;;;;;;12.57;21.72;100237.41;5360404;32;33675;-75
2023/04/06 12:01:53;;;;;;;;;;;;;;;12.10;22.95;100247.59;5374774;32;33007;-81
2023/04/06 12:04:55;;;;;;;;;;;;;;;11.62;22.78;100241.88;5354232;32;33000;-76
2023/04/06 12:07:58;;;;;;;;;;;;;;;10.44;24.13;100250.53;5357041;32;33715;-70
2023/04/06 12:11:07;;;;;;;;;;;;;;;11.47;23.21;100241.72;5366284;32;35135;-73
2023/04/06 12:14:10;;;;;;;;;;;;;;;10.55;24.03;100243.87;5358329;32;44198;-72
2023/04/06 12:17:12;;;;;;;;;;;;;;;10.88;23.49;100243.41;5381174;32;34571;-77
2023/04/06 12:20:15;;;;;;;;;;;;;;;10.89;23.66;100249.53;5357092;32;32453;-67
2023/04/06 12:23:28;;;;;;;;;;;;;;;11.10;23.43;100241.56;5366661;32;34341;-68
2023/04/06 12:26:30;;;;;;;;;;;;;;;10.52;24.37;100230.91;5369656;32;34142;-71
2023/04/06 12:29:33;;;;;;;;;;;;;;;11.33;23.36;100237.06;5363273;32;33965;-72
2023/04/06 12:32:35;;;;;;;;;;;;;;;11.73;22.90;100236.13;5377571;32;34480;-70
2023/04/06 12:35:38;;;;;;;;;;;;;;;12.46;21.54;100221.25;5359931;32;33013;-72
2023/04/06 12:38:41;;;;;;;;;;;;;;;12.32;21.69;100226.34;5347751;32;44309;-76
2023/04/06 12:41:43;;;;;;;;;;;;;;;10.80;23.51;100237.63;5349802;32;35275;-72
2023/04/06 12:44:46;;;;;;;;;;;;;;;11.12;23.49;100226.56;5330777;32;34135;-71
2023/04/06 12:47:49;;;;;;;;;;;;;;;11.78;22.86;100226.22;5353012;32;34357;-71
2023/04/06 12:50:56;;;;;;;;;;;;;;;11.48;23.91;100223.22;5335980;32;34202;-70
2023/04/06 12:53:58;;;;;;;;;;;;;;;10.13;25.46;100232.47;5340398;32;34293;-71
2023/04/06 12:57:01;;;;;;;;;;;;;;;10.19;25.50;100222.59;5335830;32;34913;-69
2023/04/06 13:00:04;;;;;;;;;;;;;;;10.96;24.96;100224.69;5349195;32;32954;-73
2023/04/06 13:03:10;;;;;;;;;;;;;;;10.82;25.58;100233.16;5302933;32;44505;-72
2023/04/06 13:06:14;;;;;;;;;;;;;;;11.20;24.85;100226.22;5297546;32;32052;-70
2023/04/06 13:09:16;;;;;;;;;;;;;;;11.36;24.72;100211.47;5363075;32;33010;-71
2023/04/06 13:12:19;;;;;;;;;;;;;;;11.19;24.76;100221.88;5365089;32;32819;-81
2023/04/06 13:15:21;;;;;;;;;;;;;;;11.72;24.12;100225.66;5377157;32;33076;-70
2023/04/06 13:18:23;;;;;;;;;;;;;;;10.54;26.00;100225.56;5363968;32;34176;-79
2023/04/06 13:21:25;;;;;;;;;;;;;;;11.77;24.44;100211.34;5373957;32;33580;-74
2023/04/06 13:24:27;;;;;;;;;;;;;;;9.80;26.84;100205.78;5368850;32;34224;-73
2023/04/06 13:27:33;;;;;;;;;;;;;;;10.97;25.73;100219.34;5364220;32;34769;-72
2023/04/06 13:30:35;;;;;;;;;;;;;;;10.54;26.47;100217.69;5381325;32;32401;-71
2023/04/06 13:33:39;;;;;;;;;;;;;;;11.44;25.49;100205.00;5367386;32;34002;-77
2023/04/06 13:36:42;;;;;;;;;;;;;;;11.42;25.50;100207.72;5379754;32;44555;-72
2023/04/06 13:39:44;;;;;;;;;;;;;;;10.31;27.37;100205.50;5350884;32;34408;-72
2023/04/06 13:42:47;;;;;;;;;;;;;;;10.84;27.14;100226.06;5366556;32;33143;-70
2023/04/06 13:45:57;;;;;;;;;;;;;;;8.89;30.87;100232.69;5367505;32;35877;-75
2023/04/06 13:49:00;;;;;;;;;;;;;;;8.68;32.97;100228.16;5360275;32;35621;-72
2023/04/06 13:52:02;;;;;;;;;;;;;;;10.41;29.97;100227.84;5368929;32;36176;-68
2023/04/06 13:55:04;;;;;;;;;;;;;;;10.01;30.50;100215.44;5356367;32;34898;-69
2023/04/06 13:58:07;;;;;;;;;;;;;;;9.62;30.30;100216.06;5373014;32;35246;-67
2023/04/06 14:01:09;;;;;;;;;;;;;;;10.52;29.06;100206.41;5352591;32;44411;-67
2023/04/06 14:04:12;;;;;;;;;;;;;;;9.57;30.10;100209.28;5345498;32;31642;-69
2023/04/06 14:07:14;;;;;;;;;;;;;;;10.80;27.83;100204.28;5358417;32;33694;-67
2023/04/06 14:10:16;;;;;;;;;;;;;;;11.15;27.39;100196.66;5356654;32;34055;-68
2023/04/06 14:13:19;;;;;;;;;;;;;;;11.53;26.75;100200.19;5373321;32;32968;-67
2023/04/06 14:16:22;;;;;;;;;;;;;;;10.75;26.89;100208.88;5360664;32;33021;-68
2023/04/06 14:19:25;;;;;;;;;;;;;;;10.25;28.16;100204.00;5370095;32;35009;-69
2023/04/06 14:22:27;;;;;;;;;;;;;;;10.64;27.70;100208.50;5363417;32;34402;-67
2023/04/06 14:25:36;;;;;;;;;;;;;;;10.82;27.32;100207.72;5348142;32;33590;-68
2023/04/06 14:28:39;;;;;;;;;;;;;;;9.62;28.84;100202.94;5374017;32;44564;-68
2023/04/06 14:31:41;;;;;;;;;;;;;;;9.57;29.30;100207.50;5359802;32;35676;-67
2023/04/06 14:34:43;;;;;;;;;;;;;;;10.16;27.78;100179.81;5376595;32;34055;-68
2023/04/06 14:37:45;;;;;;;;;;;;;;;10.53;27.76;100197.59;5360588;32;34324;-67
2023/04/06 14:40:48;;;;;;;;;;;;;;;10.25;28.51;100205.75;5369494;32;34082;-68
2023/04/06 14:43:52;;;;;;;;;;;;;;;9.97;28.25;100198.06;5366413;32;34186;-68
2023/04/06 14:46:54;;;;;;;;;;;;;;;9.75;28.96;100211.19;5363372;32;33951;-68
2023/04/06 14:49:57;;;;;;;;;;;;;;;10.24;28.84;100210.16;5383122;32;35247;-67
2023/04/06 14:53:00;;;;;;;;;;;;;;;10.58;28.74;100221.91;5359459;32;33967;-67
2023/04/06 14:56:03;;;;;;;;;;;;;;;9.96;30.76;100226.09;5379763;32;33303;-67
2023/04/06 14:59:05;;;;;;;;;;;;;;;9.44;31.76;100224.63;5361738;32;33539;-69
2023/04/06 15:02:07;;;;;;;;;;;;;;;9.82;32.11;100232.81;5370283;32;33620;-68
2023/04/06 15:05:09;;;;;;;;;;;;;;;10.32;31.72;100232.63;5347826;32;44774;-68
2023/04/06 15:08:13;;;;;;;;;;;;;;;9.98;32.32;100228.66;5361394;32;33374;-68
2023/04/06 15:11:17;;;;;;;;;;;;;;;8.75;35.30;100247.16;5378063;32;34421;-69
2023/04/06 15:14:19;;;;;;;;;;;;;;;8.40;38.08;100262.28;5360399;32;35583;-68
2023/04/06 15:17:21;;;;;;;;;;;;;;;8.52;38.43;100258.41;5374868;32;33471;-67
2023/04/06 15:20:24;;;;;;;;;;;;;;;9.00;37.68;100261.13;5348980;32;32223;-67
2023/04/06 15:23:32;;;;;;;;;;;;;;;8.52;38.80;100251.41;5403225;27;33588;-88
2023/04/06 15:26:38;;;;;;;;;;;;;;;7.55;41.20;100258.72;5368518;32;32897;-88
2023/04/06 15:29:40;;;;;;;;;;;;;;;8.75;39.21;100255.03;5382858;26;44440;-81
2023/04/06 15:32:55;;;;;;;;;;;;;;;8.18;40.54;100253.34;5382459;32;34106;-77
2023/04/06 15:35:57;;;;;;;;;;;;;;;8.37;40.89;100259.75;5328219;32;33053;-77
2023/04/06 15:39:00;;;;;;;;;;;;;;;8.32;42.28;100269.50;5354437;32;33577;-77
2023/04/06 15:42:02;;;;;;;;;;;;;;;8.38;41.91;100264.09;5333702;32;34935;-77
2023/04/06 15:45:05;;;;;;;;;;;;;;;7.23;44.21;100269.22;5336963;32;33056;-81
2023/04/06 15:48:08;;;;;;;;;;;;;;;7.59;43.10;100262.94;5348410;32;34137;-77